createdAt,value
2023-04-20T00:00:17.864Z,3.55
2023-04-20T00:02:45.447Z,3.42
2023-04-20T00:05:12.765Z,3.58
2023-04-20T00:07:41.733Z,3.40
2023-04-20T00:10:09.715Z,3.13
2023-04-20T00:12:36.882Z,3.20
2023-04-20T00:15:04.072Z,3.95
2023-04-20T00:17:31.145Z,3.45
2023-04-20T00:19:57.996Z,3.50
2023-04-20T00:22:26.324Z,3.63
2023-04-20T00:24:53.181Z,3.60
2023-04-20T00:27:20.009Z,3.47
2023-04-20T00:29:46.824Z,3.45
2023-04-20T00:32:13.657Z,3.35
2023-04-20T00:34:40.472Z,3.17
2023-04-20T00:37:07.321Z,3.10
2023-04-20T00:39:34.236Z,3.00
2023-04-20T00:42:06.612Z,3.13
2023-04-20T00:44:33.825Z,3.22
2023-04-20T00:47:01.501Z,3.35
2023-04-20T00:49:30.171Z,3.42
2023-04-20T00:51:58.735Z,2.80
2023-04-20T00:54:28.380Z,4.20
2023-04-20T00:56:57.990Z,3.20
2023-04-20T00:59:24.944Z,3.55
2023-04-20T01:01:51.998Z,3.40
2023-04-20T01:04:19.378Z,3.50
2023-04-20T01:06:46.464Z,3.30
2023-04-20T01:09:13.307Z,2.97
2023-04-20T01:11:40.266Z,3.25
2023-04-20T01:14:07.484Z,3.22
2023-04-20T01:16:37.377Z,3.10
2023-04-20T01:19:04.421Z,3.15
2023-04-20T01:21:32.132Z,3.20
2023-04-20T01:23:59.129Z,3.30
2023-04-20T01:26:27.405Z,3.15
2023-04-20T01:28:54.378Z,3.67
2023-04-20T01:31:21.265Z,3.00
2023-04-20T01:33:48.807Z,3.22
2023-04-20T01:36:15.733Z,3.15
2023-04-20T01:38:42.630Z,2.92
2023-04-20T01:41:10.226Z,2.90
2023-04-20T01:43:38.230Z,3.17
2023-04-20T01:46:05.801Z,3.40
2023-04-20T01:48:33.162Z,3.20
2023-04-20T01:50:59.986Z,3.40
2023-04-20T01:53:27.111Z,3.35
2023-04-20T01:55:54.003Z,3.00
2023-04-20T01:58:20.820Z,3.00
2023-04-20T02:00:47.898Z,3.90
2023-04-20T02:03:14.865Z,3.65
2023-04-20T02:05:41.862Z,3.15
2023-04-20T02:08:08.779Z,3.15
2023-04-20T02:10:35.900Z,3.03
2023-04-20T02:13:02.728Z,4.10
2023-04-20T02:15:29.649Z,3.05
2023-04-20T02:17:57.453Z,3.20
2023-04-20T02:20:24.628Z,3.40
2023-04-20T02:22:51.564Z,2.75
2023-04-20T02:25:18.566Z,3.25
2023-04-20T02:27:45.460Z,2.90
2023-04-20T02:30:12.996Z,3.20
2023-04-20T02:32:40.002Z,2.90
2023-04-20T02:35:07.028Z,3.03
2023-04-20T02:37:33.779Z,2.95
2023-04-20T02:40:00.754Z,3.83
2023-04-20T02:42:27.568Z,3.30
2023-04-20T02:44:54.504Z,2.72
2023-04-20T02:47:21.434Z,3.42
2023-04-20T02:49:48.384Z,2.95
2023-04-20T02:52:15.627Z,3.08
2023-04-20T02:54:42.405Z,3.30
2023-04-20T02:57:10.996Z,3.25
2023-04-20T02:59:38.332Z,3.38
2023-04-20T03:02:05.521Z,3.17
2023-04-20T03:04:32.456Z,3.97
2023-04-20T03:07:00.452Z,3.03
2023-04-20T03:09:28.081Z,4.00
2023-04-20T03:11:54.914Z,3.30
2023-04-20T03:14:21.817Z,2.72
2023-04-20T03:16:48.861Z,3.10
2023-04-20T03:19:16.320Z,3.00
2023-04-20T03:21:44.304Z,3.13
2023-04-20T03:24:11.461Z,3.33
2023-04-20T03:26:38.303Z,3.08
2023-04-20T03:29:05.125Z,3.45
2023-04-20T03:31:32.022Z,3.03
2023-04-20T03:33:58.873Z,3.55
2023-04-20T03:36:25.773Z,2.83
2023-04-20T03:38:52.610Z,2.90
2023-04-20T03:41:19.448Z,2.90
2023-04-20T03:43:46.386Z,2.97
2023-04-20T03:46:13.308Z,2.90
2023-04-20T03:48:40.608Z,2.80
2023-04-20T03:51:07.472Z,3.08
2023-04-20T03:53:36.634Z,2.80
2023-04-20T03:56:05.378Z,3.20
2023-04-20T03:58:32.478Z,3.10
2023-04-20T04:01:04.185Z,2.97
2023-04-20T04:03:31.186Z,3.05
2023-04-20T04:05:58.419Z,2.90
2023-04-20T04:08:25.241Z,3.47
2023-04-20T04:10:52.149Z,3.08
2023-04-20T04:13:18.982Z,3.25
2023-04-20T04:15:46.173Z,3.20
2023-04-20T04:18:13.015Z,3.20
2023-04-20T04:20:39.812Z,3.00
2023-04-20T04:23:07.027Z,3.78
2023-04-20T04:25:34.125Z,2.92
2023-04-20T04:28:01.000Z,3.00
2023-04-20T04:30:27.829Z,4.00
2023-04-20T04:32:55.543Z,3.30
2023-04-20T04:35:22.537Z,3.33
2023-04-20T04:37:49.393Z,3.10
2023-04-20T04:40:16.401Z,3.47
2023-04-20T04:42:45.424Z,2.97
2023-04-20T04:45:13.630Z,3.10
2023-04-20T04:47:43.934Z,3.15
2023-04-20T04:50:11.463Z,3.30
2023-04-20T04:52:38.339Z,4.53
2023-04-20T04:55:09.189Z,3.38
2023-04-20T04:57:38.565Z,3.20
2023-04-20T05:00:11.613Z,2.85
2023-04-20T05:02:38.863Z,3.38
2023-04-20T05:05:09.411Z,3.60
2023-04-20T05:07:38.266Z,3.50
2023-04-20T05:10:06.402Z,3.20
2023-04-20T05:12:33.438Z,3.30
2023-04-20T05:15:00.531Z,3.30
2023-04-20T05:17:27.563Z,3.25
2023-04-20T05:19:54.542Z,3.30
2023-04-20T05:22:21.409Z,3.10
2023-04-20T05:24:48.321Z,3.30
2023-04-20T05:27:15.409Z,4.10
2023-04-20T05:29:42.438Z,3.20
2023-04-20T05:32:09.390Z,3.30
2023-04-20T05:34:36.380Z,3.50
2023-04-20T05:37:05.654Z,3.58
2023-04-20T05:39:32.514Z,3.45
2023-04-20T05:41:59.367Z,3.95
2023-04-20T05:44:26.181Z,3.47
2023-04-20T05:46:52.999Z,3.38
2023-04-20T05:49:20.075Z,3.78
2023-04-20T05:51:47.067Z,3.97
2023-04-20T05:54:13.981Z,3.33
2023-04-20T05:56:41.098Z,3.47
2023-04-20T05:59:08.439Z,4.00
2023-04-20T06:01:35.639Z,3.83
2023-04-20T06:04:02.763Z,3.30
2023-04-20T06:06:29.745Z,3.47
2023-04-20T06:08:58.142Z,3.40
2023-04-20T06:11:25.136Z,3.45
2023-04-20T06:13:52.022Z,3.80
2023-04-20T06:16:19.005Z,3.47
2023-04-20T06:18:45.853Z,4.50
2023-04-20T06:21:14.336Z,4.40
2023-04-20T06:23:41.445Z,4.65
2023-04-20T06:26:09.807Z,4.28
2023-04-20T06:28:37.241Z,5.55
2023-04-20T06:31:04.924Z,4.80
2023-04-20T06:33:31.812Z,5.03
2023-04-20T06:35:59.182Z,5.00
2023-04-20T06:38:26.134Z,5.57
2023-04-20T06:40:52.997Z,5.22
2023-04-20T06:43:19.832Z,5.38
2023-04-20T06:45:46.974Z,6.28
2023-04-20T06:48:30.212Z,5.25
2023-04-20T06:50:58.653Z,5.65
2023-04-20T06:53:25.559Z,6.50
2023-04-20T06:55:55.573Z,6.40
2023-04-20T06:58:22.457Z,5.70
2023-04-20T07:00:49.276Z,5.35
2023-04-20T07:03:16.471Z,5.43
2023-04-20T07:05:43.537Z,5.25
2023-04-20T07:08:10.535Z,5.20
2023-04-20T07:10:37.373Z,5.93
2023-04-20T07:13:04.277Z,5.82
2023-04-20T07:15:31.315Z,4.68
2023-04-20T07:17:58.214Z,4.97
2023-04-20T07:20:25.099Z,5.03
2023-04-20T07:22:51.954Z,4.85
2023-04-20T07:25:18.883Z,4.82
2023-04-20T07:27:45.878Z,5.20
2023-04-20T07:30:13.114Z,4.88
2023-04-20T07:32:41.258Z,5.03
2023-04-20T07:35:08.737Z,5.00
2023-04-20T07:37:36.083Z,4.60
2023-04-20T07:40:06.723Z,4.63
2023-04-20T07:42:35.035Z,4.57
2023-04-20T07:45:01.928Z,4.88
2023-04-20T07:47:28.828Z,4.63
2023-04-20T07:49:57.587Z,4.05
2023-04-20T07:52:26.061Z,4.15
2023-04-20T07:54:59.823Z,4.65
2023-04-20T07:57:28.135Z,4.50
2023-04-20T07:59:55.090Z,4.80
2023-04-20T08:02:22.119Z,4.97
2023-04-20T08:04:50.178Z,4.15
2023-04-20T08:07:17.996Z,4.35
2023-04-20T08:09:44.939Z,4.65
2023-04-20T08:12:11.749Z,4.30
2023-04-20T08:14:38.606Z,5.55
2023-04-20T08:17:05.646Z,4.70
2023-04-20T08:19:32.866Z,4.18
2023-04-20T08:22:00.729Z,4.35
2023-04-20T08:24:29.331Z,4.38
2023-04-20T08:26:56.677Z,4.35
2023-04-20T08:29:23.495Z,4.40
2023-04-20T08:31:51.798Z,4.82
2023-04-20T08:34:19.209Z,4.47
2023-04-20T08:36:46.520Z,4.32
2023-04-20T08:39:18.584Z,4.28
2023-04-20T08:41:45.656Z,4.88
2023-04-20T08:44:12.717Z,4.50
2023-04-20T08:46:42.471Z,4.68
2023-04-20T08:49:12.830Z,5.03
2023-04-20T08:51:44.117Z,4.60
2023-04-20T08:54:12.208Z,4.60
2023-04-20T08:56:41.701Z,4.50
2023-04-20T08:59:14.072Z,4.40
2023-04-20T09:01:42.027Z,4.60
2023-04-20T09:04:35.292Z,4.38
2023-04-20T09:07:02.882Z,4.30
2023-04-20T09:09:29.873Z,4.10
2023-04-20T09:12:05.030Z,4.25
2023-04-20T09:14:46.153Z,4.60
2023-04-20T09:17:15.149Z,4.13
2023-04-20T09:19:45.251Z,4.60
2023-04-20T09:22:12.736Z,4.32
2023-04-20T09:24:41.414Z,4.32
2023-04-20T09:27:19.351Z,4.28
2023-04-20T09:29:57.980Z,4.50
2023-04-20T09:32:26.411Z,4.55
2023-04-20T09:34:53.360Z,4.40
2023-04-20T09:37:20.521Z,4.68
2023-04-20T09:39:47.424Z,4.47
2023-04-20T09:42:16.025Z,4.63
2023-04-20T09:44:43.630Z,5.22
2023-04-20T09:47:21.338Z,5.18
2023-04-20T09:49:48.425Z,4.25
2023-04-20T09:52:18.882Z,4.25
2023-04-20T09:54:46.245Z,3.85
2023-04-20T09:57:14.318Z,3.80
2023-04-20T09:59:46.289Z,3.80
2023-04-20T10:02:14.325Z,4.15
2023-04-20T10:05:01.936Z,3.97
2023-04-20T10:07:31.762Z,4.25
2023-04-20T10:10:13.515Z,4.05
2023-04-20T10:12:51.248Z,3.88
2023-04-20T10:15:19.504Z,3.70
2023-04-20T10:17:46.528Z,3.90
2023-04-20T10:20:21.462Z,3.58
2023-04-20T10:22:48.568Z,4.30
2023-04-20T10:25:19.448Z,3.33
2023-04-20T10:28:01.009Z,3.42
2023-04-20T10:30:29.407Z,3.10
2023-04-20T10:33:07.111Z,3.50
2023-04-20T10:35:56.174Z,4.10
2023-04-20T10:38:30.029Z,3.17
2023-04-20T10:40:57.111Z,3.60
2023-04-20T10:43:24.026Z,3.42
2023-04-20T10:45:51.051Z,3.33
2023-04-20T10:48:18.427Z,2.90
2023-04-20T10:50:46.073Z,3.05
2023-04-20T10:53:23.689Z,2.95
2023-04-20T10:56:00.858Z,3.47
2023-04-20T10:58:27.960Z,3.22
2023-04-20T11:01:02.910Z,3.17
2023-04-20T11:03:31.823Z,3.58
2023-04-20T11:06:03.789Z,3.50
2023-04-20T11:08:41.821Z,3.33
2023-04-20T11:11:38.417Z,3.10
2023-04-20T11:14:07.662Z,3.45
2023-04-20T11:16:48.570Z,3.60
2023-04-20T11:19:27.270Z,3.80
2023-04-20T11:21:54.339Z,3.65
2023-04-20T11:24:26.870Z,3.33
2023-04-20T11:26:55.095Z,3.72
2023-04-20T11:29:38.838Z,3.78
2023-04-20T11:32:10.764Z,3.78
2023-04-20T11:34:39.641Z,4.13
2023-04-20T11:37:08.198Z,3.78
2023-04-20T11:39:35.234Z,3.70
2023-04-20T11:42:02.374Z,3.78
2023-04-20T11:44:29.216Z,3.47
2023-04-20T11:46:59.724Z,4.40
2023-04-20T11:49:28.414Z,3.58
2023-04-20T11:51:55.608Z,3.55
2023-04-20T11:54:24.057Z,3.60
2023-04-20T11:56:51.312Z,3.83
2023-04-20T11:59:20.583Z,3.70
2023-04-20T12:01:48.318Z,3.70
2023-04-20T12:04:16.416Z,3.75
2023-04-20T12:06:44.060Z,3.85
2023-04-20T12:09:11.020Z,3.65
2023-04-20T12:11:37.869Z,3.58
2023-04-20T12:14:05.257Z,3.42
2023-04-20T12:16:32.491Z,3.95
2023-04-20T12:18:59.642Z,3.92
2023-04-20T12:21:27.425Z,3.97
2023-04-20T12:23:54.434Z,3.78
2023-04-20T12:26:22.627Z,4.05
2023-04-20T12:28:52.234Z,3.70
2023-04-20T12:31:19.252Z,3.55
2023-04-20T12:33:46.114Z,3.85
2023-04-20T12:36:13.020Z,3.85
2023-04-20T12:38:39.903Z,3.67
2023-04-20T12:41:06.869Z,4.32
2023-04-20T12:43:33.901Z,3.90
2023-04-20T12:46:00.703Z,3.60
2023-04-20T12:48:27.487Z,3.60
2023-04-20T12:50:54.413Z,3.67
2023-04-20T12:53:21.465Z,3.50
2023-04-20T12:55:50.970Z,3.97
2023-04-20T12:58:21.962Z,3.95
2023-04-20T13:00:48.902Z,4.70
2023-04-20T13:03:15.975Z,4.68
2023-04-20T13:05:44.472Z,4.90
2023-04-20T13:08:11.709Z,5.40
2023-04-20T13:10:42.959Z,5.63
2023-04-20T13:13:11.187Z,5.82
2023-04-20T13:15:39.394Z,5.38
2023-04-20T13:18:07.008Z,5.50
2023-04-20T13:20:33.943Z,5.47
2023-04-20T13:23:01.550Z,5.78
2023-04-20T13:25:30.077Z,5.75
2023-04-20T13:27:57.627Z,5.13
2023-04-20T13:30:25.028Z,4.90
2023-04-20T13:32:52.223Z,5.20
2023-04-20T13:35:19.357Z,5.32
2023-04-20T13:37:46.275Z,5.53
2023-04-20T13:40:13.829Z,6.28
2023-04-20T13:42:40.750Z,5.72
2023-04-20T13:45:08.782Z,5.50
2023-04-20T13:47:35.635Z,5.78
2023-04-20T13:50:03.647Z,5.60
2023-04-20T13:52:30.795Z,6.30
2023-04-20T13:54:57.568Z,6.57
2023-04-20T13:57:24.487Z,6.53
2023-04-20T13:59:51.392Z,4.82
2023-04-20T14:02:18.251Z,4.72
2023-04-20T14:04:45.254Z,5.63
2023-04-20T14:07:12.257Z,4.68
2023-04-20T14:09:39.043Z,5.15
2023-04-20T14:12:05.976Z,4.70
2023-04-20T14:14:34.281Z,4.07
2023-04-20T14:17:02.014Z,4.28
2023-04-20T14:19:28.907Z,4.22
2023-04-20T14:21:55.847Z,4.20
2023-04-20T14:24:22.683Z,4.38
2023-04-20T14:26:51.311Z,4.63
2023-04-20T14:29:18.241Z,5.82
2023-04-20T14:31:45.064Z,4.35
2023-04-20T14:34:13.243Z,4.70
2023-04-20T14:36:40.333Z,4.50
2023-04-20T14:39:07.264Z,4.93
2023-04-20T14:41:34.896Z,5.15
2023-04-20T14:44:02.088Z,4.75
2023-04-20T14:46:29.087Z,4.28
2023-04-20T14:48:56.092Z,3.90
2023-04-20T14:51:22.909Z,4.18
2023-04-20T14:53:49.999Z,4.80
2023-04-20T14:56:16.805Z,5.78
2023-04-20T14:58:43.726Z,6.40
2023-04-20T15:01:11.339Z,6.90
2023-04-20T15:03:38.392Z,6.80
2023-04-20T15:06:06.065Z,7.20
2023-04-20T15:08:33.775Z,7.25
2023-04-20T15:11:02.004Z,7.05
2023-04-20T15:13:28.882Z,6.57
2023-04-20T15:15:55.867Z,6.18
2023-04-20T15:18:22.902Z,6.90
2023-04-20T15:20:52.098Z,7.20
2023-04-20T15:23:19.272Z,6.47
2023-04-20T15:25:46.268Z,6.93
2023-04-20T15:28:13.176Z,7.70
2023-04-20T15:30:40.182Z,7.70
2023-04-20T15:33:07.386Z,8.20
2023-04-20T15:35:35.342Z,8.45
2023-04-20T15:38:03.484Z,8.68
2023-04-20T15:40:30.467Z,9.02
2023-04-20T15:42:57.508Z,9.20
2023-04-20T15:45:24.790Z,9.05
2023-04-20T15:47:51.825Z,9.95
2023-04-20T15:50:19.319Z,10.70
2023-04-20T15:52:49.653Z,10.10
2023-04-20T15:55:17.116Z,10.43
2023-04-20T15:57:48.369Z,10.25
2023-04-20T16:00:15.707Z,10.20
2023-04-20T16:02:42.942Z,10.20
2023-04-20T16:05:10.004Z,10.05
2023-04-20T16:07:36.916Z,9.70
2023-04-20T16:10:07.023Z,9.73
2023-04-20T16:12:33.867Z,9.63
2023-04-20T16:15:02.054Z,9.68
2023-04-20T16:17:29.121Z,9.30
2023-04-20T16:19:56.100Z,9.07
2023-04-20T16:22:22.978Z,9.18
2023-04-20T16:24:49.881Z,9.30
2023-04-20T16:27:17.165Z,8.77
2023-04-20T16:29:44.865Z,9.27
2023-04-20T16:32:12.079Z,9.25
2023-04-20T16:34:38.906Z,9.25
2023-04-20T16:37:05.738Z,9.18
2023-04-20T16:39:32.755Z,9.45
2023-04-20T16:41:59.629Z,9.35
2023-04-20T16:44:26.498Z,8.25
2023-04-20T16:46:53.378Z,7.75
2023-04-20T16:49:20.422Z,7.07
2023-04-20T16:51:47.931Z,7.05
2023-04-20T16:54:14.840Z,6.25
2023-04-20T16:56:41.800Z,5.82
2023-04-20T16:59:08.670Z,6.25
2023-04-20T17:01:35.821Z,5.60
2023-04-20T17:04:02.806Z,6.05
2023-04-20T17:06:29.778Z,5.47
2023-04-20T17:09:01.408Z,6.05
2023-04-20T17:11:28.740Z,5.28
2023-04-20T17:13:55.664Z,5.63
2023-04-20T17:16:22.513Z,6.70
2023-04-20T17:18:49.458Z,7.03
2023-04-20T17:21:16.279Z,7.47
2023-04-20T17:23:43.164Z,7.65
2023-04-20T17:26:10.120Z,8.27
2023-04-20T17:28:37.065Z,7.60
2023-04-20T17:31:04.075Z,7.03
2023-04-20T17:33:30.960Z,7.13
2023-04-20T17:35:58.215Z,5.85
2023-04-20T17:38:25.123Z,5.82
2023-04-20T17:40:52.010Z,5.60
2023-04-20T17:43:19.054Z,5.70
2023-04-20T17:45:49.362Z,5.65
2023-04-20T17:48:16.464Z,5.60
2023-04-20T17:50:43.411Z,5.88
2023-04-20T17:53:10.191Z,6.10
2023-04-20T17:55:37.143Z,6.05
2023-04-20T17:58:04.005Z,6.35
2023-04-20T18:00:30.915Z,6.70
2023-04-20T18:03:00.518Z,7.15
2023-04-20T18:05:27.573Z,6.90
2023-04-20T18:07:54.447Z,7.07
2023-04-20T18:10:21.372Z,7.85
2023-04-20T18:12:48.240Z,7.78
2023-04-20T18:15:15.297Z,6.85
2023-04-20T18:17:42.676Z,7.05
2023-04-20T18:20:11.347Z,7.00
2023-04-20T18:22:38.717Z,6.40
2023-04-20T18:25:05.946Z,7.47
2023-04-20T18:27:32.762Z,6.28
2023-04-20T18:30:02.445Z,6.65
2023-04-20T18:32:30.950Z,6.20
2023-04-20T18:35:00.375Z,6.25
2023-04-20T18:37:27.365Z,5.65
2023-04-20T18:39:54.267Z,5.68
2023-04-20T18:42:21.288Z,5.53
2023-04-20T18:44:51.030Z,5.60
2023-04-20T18:47:18.988Z,6.05
2023-04-20T18:49:45.812Z,6.65
2023-04-20T18:52:13.713Z,6.60
2023-04-20T18:54:40.796Z,7.20
2023-04-20T18:57:08.046Z,8.38
2023-04-20T18:59:34.899Z,8.68
2023-04-20T19:02:01.820Z,9.35
2023-04-20T19:04:29.695Z,9.75
2023-04-20T19:06:56.561Z,10.13
2023-04-20T19:09:23.462Z,10.43
2023-04-20T19:11:51.093Z,9.73
2023-04-20T19:14:18.297Z,9.98
2023-04-20T19:16:45.374Z,9.63
2023-04-20T19:19:12.369Z,10.50
2023-04-20T19:21:39.203Z,10.70
2023-04-20T19:24:06.485Z,10.10
2023-04-20T19:26:33.665Z,10.73
2023-04-20T19:29:00.676Z,10.00
2023-04-20T19:31:32.172Z,10.00
2023-04-20T19:33:59.185Z,10.27
2023-04-20T19:36:26.016Z,10.10
2023-04-20T19:38:52.859Z,10.38
2023-04-20T19:41:19.865Z,9.40
2023-04-20T19:43:46.934Z,10.10
2023-04-20T19:46:16.884Z,9.60
2023-04-20T19:48:44.361Z,10.07
2023-04-20T19:51:11.853Z,10.73
2023-04-20T19:53:38.760Z,10.88
2023-04-20T19:56:06.607Z,11.52
2023-04-20T19:58:33.615Z,11.55
2023-04-20T20:01:00.541Z,11.18
2023-04-20T20:03:27.680Z,10.85
2023-04-20T20:05:54.664Z,10.93
2023-04-20T20:08:21.559Z,11.15
2023-04-20T20:10:48.412Z,11.18
2023-04-20T20:13:15.573Z,11.10
2023-04-20T20:15:42.724Z,12.07
2023-04-20T20:18:12.194Z,11.55
2023-04-20T20:20:39.383Z,11.05
2023-04-20T20:23:06.341Z,11.18
2023-04-20T20:25:35.156Z,11.68
2023-04-20T20:28:02.306Z,11.43
2023-04-20T20:30:29.229Z,11.57
2023-04-20T20:32:58.906Z,11.77
2023-04-20T20:35:31.546Z,11.52
2023-04-20T20:37:59.525Z,10.95
2023-04-20T20:40:26.569Z,11.30
2023-04-20T20:42:54.399Z,11.60
2023-04-20T20:45:22.043Z,11.15
2023-04-20T20:47:49.001Z,11.80
2023-04-20T20:50:16.532Z,11.88
2023-04-20T20:52:43.458Z,11.52
2023-04-20T20:55:11.099Z,11.18
2023-04-20T20:57:38.426Z,11.40
2023-04-20T21:00:11.306Z,11.13
2023-04-20T21:02:38.587Z,11.43
2023-04-20T21:05:06.378Z,10.75
2023-04-20T21:07:33.404Z,11.23
2023-04-20T21:10:00.274Z,11.70
2023-04-20T21:12:27.081Z,10.82
2023-04-20T21:14:54.272Z,11.65
2023-04-20T21:17:21.095Z,11.07
2023-04-20T21:19:48.009Z,11.55
2023-04-20T21:22:14.991Z,13.00
2023-04-20T21:24:42.143Z,12.30
2023-04-20T21:27:09.030Z,12.15
2023-04-20T21:29:35.795Z,11.63
2023-04-20T21:32:02.883Z,12.10
2023-04-20T21:34:29.685Z,11.52
2023-04-20T21:37:03.595Z,11.20
2023-04-20T21:39:31.564Z,12.25
2023-04-20T21:41:59.467Z,11.63
2023-04-20T21:44:27.005Z,10.73
2023-04-20T21:46:53.892Z,10.80
2023-04-20T21:49:21.187Z,11.35
2023-04-20T21:51:48.103Z,10.65
2023-04-20T21:54:15.305Z,11.45
2023-04-20T21:56:42.382Z,11.75
2023-04-20T21:59:09.238Z,10.93
2023-04-20T22:01:36.125Z,10.80
2023-04-20T22:04:04.070Z,10.50
2023-04-20T22:06:32.722Z,10.90
2023-04-20T22:08:59.825Z,11.00
2023-04-20T22:11:26.789Z,10.10
2023-04-20T22:13:53.709Z,10.13
2023-04-20T22:16:21.904Z,10.88
2023-04-20T22:18:49.225Z,11.25
2023-04-20T22:21:16.368Z,9.98
2023-04-20T22:23:43.185Z,9.85
2023-04-20T22:26:10.180Z,10.27
2023-04-20T22:28:37.090Z,10.32
2023-04-20T22:31:04.080Z,9.77
2023-04-20T22:33:31.007Z,10.43
2023-04-20T22:35:57.895Z,10.02
2023-04-20T22:38:24.987Z,10.32
2023-04-20T22:40:51.806Z,10.18
2023-04-20T22:43:18.836Z,10.18
2023-04-20T22:45:45.700Z,11.15
2023-04-20T22:48:12.639Z,9.80
2023-04-20T22:50:39.476Z,10.85
2023-04-20T22:53:06.303Z,10.00
2023-04-20T22:55:33.191Z,10.30
2023-04-20T22:58:00.036Z,10.30
2023-04-20T23:00:27.121Z,10.82
2023-04-20T23:02:54.199Z,10.43
2023-04-20T23:05:21.057Z,10.85
2023-04-20T23:07:48.338Z,10.70
2023-04-20T23:10:16.397Z,11.50
2023-04-20T23:12:47.098Z,11.32
2023-04-20T23:15:13.996Z,11.48
2023-04-20T23:17:41.026Z,11.75
2023-04-20T23:20:13.767Z,11.65
2023-04-20T23:22:41.039Z,12.93
2023-04-20T23:25:09.793Z,13.27
2023-04-20T23:27:37.067Z,14.48
2023-04-20T23:30:04.293Z,13.55
2023-04-20T23:32:31.457Z,12.98
2023-04-20T23:34:58.431Z,12.88
2023-04-20T23:37:25.328Z,12.65
2023-04-20T23:39:52.140Z,13.07
2023-04-20T23:42:18.990Z,13.63
2023-04-20T23:44:45.759Z,12.95
2023-04-20T23:47:12.597Z,12.98
2023-04-20T23:49:39.418Z,13.57
2023-04-20T23:52:06.690Z,12.70
2023-04-20T23:54:33.592Z,12.48
2023-04-20T23:57:00.549Z,13.18
2023-04-20T23:59:27.371Z,12.85
